createdAt,value
2019-03-03T00:00:36.443Z,34.13
2019-03-03T00:03:05.886Z,32.28
2019-03-03T00:05:35.289Z,31.00
2019-03-03T00:08:04.734Z,30.05
2019-03-03T00:10:34.582Z,30.20
2019-03-03T00:13:04.033Z,28.20
2019-03-03T00:15:33.559Z,28.52
2019-03-03T00:26:29.820Z,31.57
2019-03-03T00:28:59.622Z,28.92
2019-03-03T00:31:36.203Z,26.27
2019-03-03T00:34:05.659Z,26.82
2019-03-03T00:36:52.982Z,27.70
2019-03-03T00:39:35.873Z,27.15
2019-03-03T00:42:09.571Z,27.65
2019-03-03T00:44:46.347Z,26.30
2019-03-03T00:47:18.668Z,28.80
2019-03-03T00:49:49.753Z,27.25
2019-03-03T00:52:23.534Z,26.75
2019-03-03T00:54:57.563Z,28.38
2019-03-03T00:57:28.618Z,27.75
2019-03-03T01:00:02.618Z,28.52
2019-03-03T01:02:39.350Z,28.30
2019-03-03T01:05:10.465Z,26.95
2019-03-03T01:07:50.202Z,26.50
2019-03-03T01:10:24.250Z,27.80
2019-03-03T01:12:58.170Z,29.20
2019-03-03T01:15:29.830Z,26.05
2019-03-03T01:18:03.759Z,26.50
2019-03-03T01:20:34.771Z,27.32
2019-03-03T01:23:21.733Z,26.55
2019-03-03T01:25:51.102Z,25.15
2019-03-03T01:28:20.446Z,25.95
2019-03-03T01:30:50.100Z,27.13
2019-03-03T01:33:19.616Z,26.02
2019-03-03T01:35:48.999Z,26.33
2019-03-03T01:38:18.341Z,27.17
2019-03-03T01:40:47.729Z,27.95
2019-03-03T01:43:17.147Z,26.07
2019-03-03T01:45:46.517Z,26.37
2019-03-03T01:48:15.884Z,26.48
2019-03-03T01:50:45.258Z,26.35
2019-03-03T01:53:14.628Z,24.57
2019-03-03T01:55:43.961Z,25.70
2019-03-03T01:58:13.333Z,25.15
2019-03-03T02:00:44.902Z,26.50
2019-03-03T02:03:13.749Z,25.20
2019-03-03T02:05:43.100Z,24.95
2019-03-03T02:08:12.472Z,27.22
2019-03-03T02:10:41.816Z,25.75
2019-03-03T02:13:11.189Z,26.27
2019-03-03T02:15:40.533Z,26.80
2019-03-03T02:18:09.919Z,27.22
2019-03-03T02:20:39.266Z,25.92
2019-03-03T02:23:08.686Z,26.27
2019-03-03T02:25:38.025Z,24.98
2019-03-03T02:28:07.365Z,25.50
2019-03-03T02:30:37.301Z,27.13
2019-03-03T02:33:06.638Z,27.20
2019-03-03T02:35:36.010Z,26.80
2019-03-03T02:38:05.342Z,26.23
2019-03-03T02:40:34.709Z,27.00
2019-03-03T02:43:04.051Z,28.17
2019-03-03T02:45:33.427Z,27.35
2019-03-03T02:48:02.763Z,27.50
2019-03-03T02:50:32.725Z,26.85
2019-03-03T02:53:02.074Z,26.40
2019-03-03T02:55:31.748Z,26.20
2019-03-03T02:58:01.100Z,27.17
2019-03-03T03:00:30.912Z,26.48
2019-03-03T03:03:02.203Z,26.77
2019-03-03T03:05:42.218Z,27.55
2019-03-03T03:08:22.160Z,27.77
2019-03-03T03:11:05.289Z,28.80
2019-03-03T03:13:52.670Z,25.75
2019-03-03T03:16:29.740Z,26.12
2019-03-03T03:19:12.779Z,26.42
2019-03-03T03:21:58.872Z,26.45
2019-03-03T03:24:29.845Z,28.52
2019-03-03T03:27:00.856Z,29.92
2019-03-03T03:29:43.993Z,27.77
2019-03-03T03:32:17.677Z,34.53
2019-03-03T03:35:03.530Z,31.93
2019-03-03T03:37:46.249Z,28.60
2019-03-03T03:40:33.192Z,28.67
2019-03-03T03:43:04.186Z,26.25
2019-03-03T03:45:50.339Z,26.40
2019-03-03T03:48:30.030Z,26.35
2019-03-03T03:51:10.097Z,27.00
2019-03-03T03:53:57.239Z,29.82
2019-03-03T03:56:34.181Z,27.55
2019-03-03T03:59:21.339Z,27.35
2019-03-03T04:01:55.246Z,27.62
2019-03-03T04:04:32.837Z,27.37
2019-03-03T04:07:19.975Z,26.50
2019-03-03T04:09:54.078Z,27.67
2019-03-03T04:12:39.672Z,25.65
2019-03-03T04:15:10.691Z,28.70
2019-03-03T04:18:00.416Z,32.83
2019-03-03T04:20:32.818Z,31.45
2019-03-03T04:23:06.509Z,28.87
2019-03-03T04:25:49.605Z,27.82
2019-03-03T04:28:23.645Z,27.87
2019-03-03T04:30:54.674Z,28.75
2019-03-03T04:33:25.933Z,48.17
2019-03-03T04:35:56.941Z,44.00
2019-03-03T04:38:42.815Z,33.67
2019-03-03T04:41:19.740Z,32.13
2019-03-03T04:44:06.664Z,28.98
2019-03-03T04:46:43.384Z,26.70
2019-03-03T04:49:30.609Z,26.45
2019-03-03T04:52:07.425Z,25.37
2019-03-03T04:54:53.555Z,23.90
2019-03-03T04:57:27.257Z,23.05
2019-03-03T05:00:00.988Z,24.67
2019-03-03T05:02:32.760Z,23.73
2019-03-03T05:05:03.741Z,23.90
2019-03-03T05:07:52.848Z,22.80
2019-03-03T05:10:35.628Z,23.87
2019-03-03T05:13:06.710Z,23.57
2019-03-03T05:15:49.718Z,24.82
2019-03-03T05:18:23.706Z,24.47
2019-03-03T05:20:53.059Z,24.02
2019-03-03T05:23:22.436Z,23.15
2019-03-03T05:25:51.787Z,21.07
2019-03-03T05:28:21.165Z,23.10
2019-03-03T05:30:50.504Z,25.12
2019-03-03T05:33:19.885Z,22.48
2019-03-03T05:35:49.226Z,23.30
2019-03-03T05:38:18.576Z,25.00
2019-03-03T05:40:47.948Z,24.60
2019-03-03T05:43:17.292Z,26.23
2019-03-03T05:45:46.665Z,27.13
2019-03-03T05:48:16.005Z,24.57
2019-03-03T05:50:46.881Z,25.48
2019-03-03T05:53:16.706Z,27.48
2019-03-03T05:55:46.080Z,24.37
2019-03-03T05:58:15.413Z,23.70
2019-03-03T06:00:44.781Z,23.57
2019-03-03T06:03:14.199Z,23.27
2019-03-03T06:05:43.590Z,22.98
2019-03-03T06:08:13.004Z,23.32
2019-03-03T06:10:42.391Z,22.15
2019-03-03T06:13:11.772Z,22.30
2019-03-03T06:15:41.159Z,22.62
2019-03-03T06:18:10.493Z,22.75
2019-03-03T06:20:39.862Z,21.48
2019-03-03T06:23:09.196Z,24.95
2019-03-03T06:25:38.568Z,22.32
2019-03-03T06:28:07.973Z,22.87
2019-03-03T06:30:37.355Z,23.73
2019-03-03T06:33:06.699Z,74.55
2019-03-03T06:35:36.069Z,34.10
2019-03-03T06:38:05.406Z,30.62
2019-03-03T06:40:34.964Z,30.62
2019-03-03T06:43:04.301Z,25.15
2019-03-03T06:45:33.676Z,30.45
2019-03-03T06:48:03.015Z,34.63
2019-03-03T06:50:32.934Z,25.45
2019-03-03T06:53:02.349Z,76.22
2019-03-03T06:55:31.921Z,24.35
2019-03-03T06:58:01.271Z,26.17
2019-03-03T07:00:31.092Z,26.65
2019-03-03T07:03:00.688Z,26.33
2019-03-03T07:05:30.062Z,27.00
2019-03-03T07:07:59.688Z,31.62
2019-03-03T07:10:29.079Z,26.60
2019-03-03T07:12:59.206Z,24.35
2019-03-03T07:15:28.581Z,26.80
2019-03-03T07:17:57.969Z,23.40
2019-03-03T07:20:27.311Z,22.35
2019-03-03T07:22:56.682Z,24.45
2019-03-03T07:25:26.022Z,23.95
2019-03-03T07:27:55.395Z,22.17
2019-03-03T07:30:24.740Z,20.17
2019-03-03T07:33:04.515Z,22.00
2019-03-03T07:35:33.923Z,20.50
2019-03-03T07:38:03.296Z,20.75
2019-03-03T07:40:32.642Z,20.45
2019-03-03T07:43:02.177Z,19.48
2019-03-03T07:45:31.512Z,18.77
2019-03-03T07:48:00.888Z,20.82
2019-03-03T07:50:30.670Z,19.62
2019-03-03T07:53:00.046Z,19.87
2019-03-03T07:55:29.383Z,20.08
2019-03-03T07:57:58.987Z,21.10
2019-03-03T08:00:28.519Z,19.12
2019-03-03T08:02:57.980Z,21.90
2019-03-03T08:05:27.318Z,23.25
2019-03-03T08:07:56.750Z,25.40
2019-03-03T08:10:26.094Z,29.42
2019-03-03T08:12:55.473Z,32.00
2019-03-03T08:15:24.848Z,25.80
2019-03-03T08:17:54.309Z,20.80
2019-03-03T08:20:23.654Z,22.07
2019-03-03T08:22:53.032Z,31.97
2019-03-03T08:25:22.370Z,18.27
2019-03-03T08:27:51.740Z,19.57
2019-03-03T08:30:21.087Z,21.27
2019-03-03T08:32:50.471Z,18.92
2019-03-03T08:35:21.950Z,26.68
2019-03-03T08:37:52.397Z,27.00
2019-03-03T08:40:21.730Z,22.77
2019-03-03T08:43:04.560Z,25.57
2019-03-03T08:45:35.535Z,23.40
2019-03-03T08:48:09.499Z,27.52
2019-03-03T08:50:46.169Z,30.25
2019-03-03T08:53:17.178Z,27.62
2019-03-03T08:55:51.199Z,16.42
2019-03-03T08:58:40.377Z,21.17
2019-03-03T09:01:17.416Z,13.22
2019-03-03T09:03:48.421Z,18.92
2019-03-03T09:06:25.109Z,12.43
2019-03-03T09:09:02.084Z,12.93
2019-03-03T09:11:33.072Z,11.43
2019-03-03T09:14:05.595Z,11.95
2019-03-03T09:16:48.853Z,11.90
2019-03-03T09:19:35.784Z,10.90
2019-03-03T09:22:21.533Z,11.97
2019-03-03T09:25:08.752Z,11.88
2019-03-03T09:27:42.677Z,11.43
2019-03-03T09:30:16.894Z,10.15
2019-03-03T09:33:03.880Z,8.83
2019-03-03T09:35:40.917Z,9.43
2019-03-03T09:38:14.588Z,8.60
2019-03-03T09:40:45.601Z,8.68
2019-03-03T09:43:16.572Z,9.93
2019-03-03T09:45:56.381Z,12.07
2019-03-03T09:48:42.496Z,12.15
2019-03-03T09:51:19.359Z,11.35
2019-03-03T09:53:56.133Z,7.55
2019-03-03T09:56:27.144Z,7.85
2019-03-03T09:59:14.064Z,7.03
2019-03-03T10:01:50.760Z,6.87
2019-03-03T10:04:30.522Z,6.75
2019-03-03T10:07:13.746Z,6.80
2019-03-03T10:10:00.918Z,6.78
2019-03-03T10:12:34.882Z,7.10
2019-03-03T10:15:22.979Z,5.70
2019-03-03T10:17:53.991Z,5.72
2019-03-03T10:20:41.018Z,9.03
2019-03-03T10:23:14.725Z,6.45
2019-03-03T10:26:01.956Z,6.75
2019-03-03T10:28:35.817Z,4.92
2019-03-03T10:31:09.596Z,5.65
2019-03-03T10:33:52.292Z,5.45
2019-03-03T10:36:28.972Z,5.40
2019-03-03T10:39:03.287Z,4.28
2019-03-03T10:41:40.317Z,5.33
2019-03-03T10:44:27.286Z,4.35
2019-03-03T10:47:16.119Z,5.17
2019-03-03T10:49:55.695Z,4.17
2019-03-03T10:52:26.699Z,5.90
2019-03-03T10:55:00.544Z,4.60
2019-03-03T10:57:31.536Z,4.70
2019-03-03T11:00:04.928Z,4.83
2019-03-03T11:02:44.950Z,4.20
2019-03-03T11:05:31.633Z,5.45
2019-03-03T11:08:10.199Z,3.75
2019-03-03T11:10:43.759Z,4.25
2019-03-03T11:13:24.269Z,4.37
2019-03-03T11:15:58.139Z,4.15
2019-03-03T11:18:31.936Z,4.15
2019-03-03T11:21:08.956Z,3.83
2019-03-03T11:23:45.978Z,3.58
2019-03-03T11:26:16.999Z,3.80
2019-03-03T11:29:03.898Z,4.15
2019-03-03T11:31:46.586Z,3.80
2019-03-03T11:34:26.650Z,3.47
2019-03-03T11:37:00.429Z,3.60
2019-03-03T11:39:34.091Z,3.27
2019-03-03T11:42:16.919Z,3.60
2019-03-03T11:44:53.940Z,3.30
2019-03-03T11:47:39.960Z,3.15
2019-03-03T11:50:11.397Z,3.02
2019-03-03T11:52:57.474Z,3.47
2019-03-03T11:55:37.281Z,3.20
2019-03-03T11:58:08.566Z,2.87
2019-03-03T12:00:42.543Z,2.98
2019-03-03T12:03:13.650Z,3.05
2019-03-03T12:05:44.693Z,2.85
2019-03-03T12:08:18.396Z,3.20
2019-03-03T12:11:07.286Z,2.60
2019-03-03T12:13:40.971Z,3.87
2019-03-03T12:16:11.969Z,3.70
2019-03-03T12:18:57.780Z,3.42
2019-03-03T12:21:44.743Z,3.92
2019-03-03T12:24:21.449Z,2.70
2019-03-03T12:27:04.585Z,2.85
2019-03-03T12:29:39.275Z,3.62
2019-03-03T12:32:13.073Z,3.27
2019-03-03T12:34:44.096Z,4.33
2019-03-03T12:37:15.077Z,4.20
2019-03-03T12:39:52.125Z,2.58
2019-03-03T12:42:26.099Z,2.60
2019-03-03T12:45:09.416Z,4.03
2019-03-03T12:47:56.591Z,3.87
2019-03-03T12:50:28.483Z,2.60
2019-03-03T12:53:15.467Z,3.98
2019-03-03T12:56:01.285Z,3.00
2019-03-03T12:58:32.254Z,3.35
2019-03-03T13:01:09.029Z,3.20
2019-03-03T13:03:49.062Z,3.25
2019-03-03T13:06:24.258Z,3.00
2019-03-03T13:08:59.493Z,2.90
2019-03-03T13:11:44.341Z,9.00
2019-03-03T13:14:31.562Z,3.90
2019-03-03T13:17:18.515Z,3.17
2019-03-03T13:20:04.706Z,7.33
2019-03-03T13:22:51.467Z,5.53
2019-03-03T13:25:22.442Z,5.10
2019-03-03T13:27:55.841Z,4.28
2019-03-03T13:30:26.818Z,3.40
2019-03-03T13:33:12.599Z,4.22
2019-03-03T13:35:52.428Z,4.10
2019-03-03T13:38:39.409Z,3.92
2019-03-03T13:41:22.182Z,3.83
2019-03-03T13:43:51.552Z,4.20
2019-03-03T13:46:20.895Z,3.25
2019-03-03T13:48:51.306Z,3.90
2019-03-03T13:51:20.780Z,4.10
2019-03-03T13:53:50.182Z,4.53
2019-03-03T13:56:19.512Z,3.75
2019-03-03T13:58:48.893Z,4.90
2019-03-03T14:01:18.271Z,5.25
2019-03-03T14:03:47.609Z,4.87
2019-03-03T14:06:16.974Z,4.00
2019-03-03T14:08:46.302Z,3.80
2019-03-03T14:11:15.659Z,4.30
2019-03-03T14:13:45.063Z,3.98
2019-03-03T14:16:15.201Z,3.52
2019-03-03T14:18:44.554Z,4.92
2019-03-03T14:21:13.921Z,4.50
2019-03-03T14:23:43.245Z,5.65
2019-03-03T14:26:12.609Z,3.70
2019-03-03T14:28:41.936Z,5.20
2019-03-03T14:31:11.292Z,3.83
2019-03-03T14:33:40.619Z,3.30
2019-03-03T14:36:09.975Z,3.27
2019-03-03T14:38:39.305Z,3.35
2019-03-03T14:41:08.670Z,3.62
2019-03-03T14:43:37.992Z,3.20
2019-03-03T14:46:07.349Z,7.35
2019-03-03T14:48:36.682Z,5.20
2019-03-03T14:51:06.130Z,4.55
2019-03-03T14:53:35.474Z,4.50
2019-03-03T14:56:04.838Z,4.72
2019-03-03T14:58:34.199Z,3.87
2019-03-03T15:01:03.945Z,4.42
2019-03-03T15:03:33.302Z,4.92
2019-03-03T15:06:02.631Z,3.67
2019-03-03T15:08:32.171Z,5.05
2019-03-03T15:11:01.818Z,3.40
2019-03-03T15:13:31.170Z,4.22
2019-03-03T15:16:00.517Z,4.12
2019-03-03T15:18:29.950Z,6.42
2019-03-03T15:20:59.275Z,6.10
2019-03-03T15:23:28.640Z,6.55
2019-03-03T15:25:57.963Z,5.15
2019-03-03T15:28:27.325Z,4.62
2019-03-03T15:30:56.667Z,5.35
2019-03-03T15:33:26.082Z,5.33
2019-03-03T15:35:55.419Z,4.33
2019-03-03T15:38:24.775Z,5.58
2019-03-03T15:40:54.113Z,5.53
2019-03-03T15:43:23.479Z,5.33
2019-03-03T15:45:52.815Z,5.05
2019-03-03T15:48:22.177Z,4.37
2019-03-03T15:50:51.511Z,9.28
2019-03-03T15:53:20.864Z,8.40
2019-03-03T15:55:50.195Z,8.33
2019-03-03T15:58:19.572Z,6.70
2019-03-03T16:00:49.385Z,7.35
2019-03-03T16:03:18.757Z,7.20
2019-03-03T16:05:48.088Z,5.62
2019-03-03T16:08:17.448Z,9.58
2019-03-03T16:10:46.779Z,11.70
2019-03-03T16:13:16.144Z,12.93
2019-03-03T16:15:45.470Z,8.90
2019-03-03T16:18:14.971Z,8.88
2019-03-03T16:20:44.317Z,11.12
2019-03-03T16:23:13.725Z,7.30
2019-03-03T16:25:43.100Z,8.60
2019-03-03T16:28:12.457Z,8.48
2019-03-03T16:30:41.805Z,11.73
2019-03-03T16:33:20.007Z,6.55
2019-03-03T16:35:42.194Z,10.93
2019-03-03T16:38:11.563Z,12.65
2019-03-03T16:40:40.900Z,11.40
2019-03-03T16:43:10.266Z,13.60
2019-03-03T16:45:39.615Z,9.58
2019-03-03T16:48:09.147Z,9.00
2019-03-03T16:50:38.476Z,8.60
2019-03-03T16:53:07.838Z,8.80
2019-03-03T16:55:37.304Z,7.22
2019-03-03T16:58:06.666Z,6.10
2019-03-03T17:00:36.006Z,7.30
2019-03-03T17:03:05.370Z,8.85
2019-03-03T17:05:34.836Z,7.37
2019-03-03T17:08:06.851Z,7.87
2019-03-03T17:10:36.179Z,6.08
2019-03-03T17:13:05.676Z,5.12
2019-03-03T17:15:35.002Z,5.83
2019-03-03T17:18:04.371Z,6.45
2019-03-03T17:20:34.208Z,4.70
2019-03-03T17:23:03.564Z,4.70
2019-03-03T17:25:33.324Z,4.10
2019-03-03T17:28:02.727Z,6.28
2019-03-03T17:30:32.410Z,4.75
2019-03-03T17:33:02.127Z,5.70
2019-03-03T17:35:31.558Z,6.00
2019-03-03T17:38:00.899Z,4.97
2019-03-03T17:40:30.268Z,7.65
2019-03-03T17:42:59.594Z,7.42
2019-03-03T17:45:29.406Z,8.25
2019-03-03T17:47:58.742Z,7.10
2019-03-03T17:50:29.239Z,7.83
2019-03-03T17:52:58.565Z,8.58
2019-03-03T17:55:27.941Z,7.33
2019-03-03T17:57:57.261Z,7.45
2019-03-03T18:00:29.172Z,12.00
2019-03-03T18:02:58.580Z,8.48
2019-03-03T18:05:27.945Z,8.70
2019-03-03T18:07:57.435Z,8.90
2019-03-03T18:10:26.829Z,10.93
2019-03-03T18:12:56.165Z,13.18
2019-03-03T18:15:25.532Z,12.28
2019-03-03T18:17:54.941Z,9.55
2019-03-03T18:20:24.336Z,7.90
2019-03-03T18:22:53.663Z,9.40
2019-03-03T18:25:23.034Z,8.85
2019-03-03T18:27:52.364Z,9.93
2019-03-03T18:30:25.787Z,7.08
2019-03-03T18:32:55.203Z,7.92
2019-03-03T18:35:24.633Z,8.85
2019-03-03T18:37:53.967Z,10.48
2019-03-03T18:40:24.344Z,9.60
2019-03-03T18:42:53.672Z,9.25
2019-03-03T18:45:23.599Z,8.70
2019-03-03T18:47:52.936Z,7.35
2019-03-03T18:50:29.662Z,6.70
2019-03-03T18:53:00.174Z,8.53
2019-03-03T18:55:29.581Z,10.93
2019-03-03T18:57:59.002Z,11.68
2019-03-03T19:00:32.011Z,9.50
2019-03-03T19:03:01.349Z,7.55
2019-03-03T19:05:31.280Z,8.20
2019-03-03T19:08:00.617Z,8.95
2019-03-03T19:10:37.598Z,9.75
2019-03-03T19:13:07.020Z,12.58
2019-03-03T19:15:36.387Z,11.93
2019-03-03T19:18:05.729Z,10.32
2019-03-03T19:20:35.100Z,9.90
2019-03-03T19:23:04.435Z,9.10
2019-03-03T19:25:34.159Z,11.93
2019-03-03T19:28:03.502Z,8.33
2019-03-03T19:30:33.274Z,9.23
2019-03-03T19:33:17.727Z,7.62
2019-03-03T19:35:47.115Z,10.15
2019-03-03T19:38:16.522Z,8.93
2019-03-03T19:40:45.960Z,7.87
2019-03-03T19:43:15.420Z,9.00
2019-03-03T19:46:00.060Z,7.47
2019-03-03T19:48:29.693Z,7.03
2019-03-03T19:50:59.499Z,7.33
2019-03-03T19:53:28.863Z,6.60
2019-03-03T19:55:58.189Z,7.00
2019-03-03T19:58:27.562Z,6.78
2019-03-03T20:00:56.894Z,7.33
2019-03-03T20:03:26.283Z,6.92
2019-03-03T20:05:57.593Z,6.42
2019-03-03T20:08:26.687Z,6.70
2019-03-03T20:10:56.018Z,6.05
2019-03-03T20:13:26.639Z,7.53
2019-03-03T20:15:56.169Z,11.38
2019-03-03T20:18:25.501Z,11.60
2019-03-03T20:20:54.874Z,13.72
2019-03-03T20:23:24.209Z,10.93
2019-03-03T20:25:53.592Z,7.15
2019-03-03T20:28:23.491Z,7.95
2019-03-03T20:30:52.878Z,7.72
2019-03-03T20:33:22.218Z,6.42
2019-03-03T20:35:51.588Z,13.83
2019-03-03T20:38:20.969Z,18.32
2019-03-03T20:40:50.301Z,12.37
2019-03-03T20:43:19.678Z,10.35
2019-03-03T20:45:49.023Z,9.00
2019-03-03T20:48:18.380Z,13.30
2019-03-03T20:50:47.890Z,10.48
2019-03-03T20:53:19.374Z,10.08
2019-03-03T20:55:48.369Z,8.55
2019-03-03T20:58:17.746Z,9.80
2019-03-03T21:00:47.087Z,9.23
2019-03-03T21:03:16.522Z,9.23
2019-03-03T21:05:45.898Z,8.80
2019-03-03T21:08:15.235Z,11.55
2019-03-03T21:10:44.673Z,11.00
2019-03-03T21:13:14.012Z,8.33
2019-03-03T21:15:43.386Z,7.42
2019-03-03T21:18:12.709Z,6.03
2019-03-03T21:20:42.087Z,6.47
2019-03-03T21:23:11.425Z,5.42
2019-03-03T21:25:40.784Z,4.03
2019-03-03T21:28:10.139Z,4.92
2019-03-03T21:30:39.538Z,4.25
2019-03-03T21:33:08.966Z,5.12
2019-03-03T21:35:38.418Z,4.95
2019-03-03T21:38:07.736Z,6.20
2019-03-03T21:40:37.139Z,5.10
2019-03-03T21:43:06.526Z,6.28
2019-03-03T21:45:36.452Z,5.47
2019-03-03T21:48:05.833Z,9.45
2019-03-03T21:50:35.207Z,4.65
2019-03-03T21:53:04.543Z,5.05
2019-03-03T21:55:34.665Z,3.58
2019-03-03T21:58:03.994Z,3.35
2019-03-03T22:00:36.405Z,3.08
2019-03-03T22:03:05.744Z,4.03
2019-03-03T22:05:35.374Z,3.27
2019-03-03T22:08:05.302Z,3.25
2019-03-03T22:10:34.720Z,3.83
2019-03-03T22:13:07.413Z,5.67
2019-03-03T22:15:36.823Z,5.87
2019-03-03T22:18:06.247Z,6.08
2019-03-03T22:20:35.664Z,4.25
2019-03-03T22:23:05.091Z,4.40
2019-03-03T22:25:34.435Z,4.15
2019-03-03T22:28:03.865Z,3.52
2019-03-03T22:30:33.674Z,3.12
2019-03-03T22:33:03.054Z,3.92
2019-03-03T22:35:32.448Z,3.80
2019-03-03T22:38:01.879Z,5.33
2019-03-03T22:40:31.617Z,4.83
2019-03-03T22:43:01.026Z,4.30
2019-03-03T22:45:30.378Z,5.53
2019-03-03T22:47:59.711Z,9.25
2019-03-03T22:50:29.086Z,5.95
2019-03-03T22:52:58.433Z,4.60
2019-03-03T22:55:31.510Z,4.10
2019-03-03T22:58:00.911Z,4.10
2019-03-03T23:00:46.602Z,3.75
2019-03-03T23:03:22.083Z,3.15
2019-03-03T23:05:54.791Z,3.70
2019-03-03T23:08:48.114Z,3.85
2019-03-03T23:11:49.015Z,4.25
2019-03-03T23:14:33.233Z,4.20
2019-03-03T23:17:14.759Z,3.42
2019-03-03T23:19:52.920Z,3.58
2019-03-03T23:22:28.403Z,3.00
2019-03-03T23:25:23.478Z,3.00
2019-03-03T23:27:52.845Z,3.25
2019-03-03T23:30:22.180Z,3.80
2019-03-03T23:32:51.538Z,3.92
2019-03-03T23:35:20.890Z,3.52
2019-03-03T23:37:50.247Z,3.35
2019-03-03T23:40:19.600Z,3.35
2019-03-03T23:42:49.006Z,3.37
2019-03-03T23:45:18.428Z,3.08
2019-03-03T23:47:47.836Z,3.52
2019-03-03T23:50:17.186Z,3.00
2019-03-03T23:52:46.587Z,3.15
2019-03-03T23:55:15.946Z,2.70
2019-03-03T23:57:45.367Z,3.17
